• Join FlightAware (Why Join?)
  • Login
  • US Flag 
10:59PM EDT


 

Airport Tracker/Info


-or-


 

Live Flight TrackerFlight Track Log ✈ SWA650 ✈ 18-May-2013 ✈ KMCO - KBWI

Flight Track Log - Related Links

Times and Time Zones

All times are in EDT time to prevent confusion due to time zone crossing. See the SWA650 flight status page for this flight to view local times or setup timezone preferences in your user account.

Time Position Orientation Groundspeed Altitude Reporting Facility
EDT Latitude Longitude Course Direction KTS MPH feet Rate Location/Type
10:37AM 28.4000 -81.3000 156° South 172 198 700  Level Orlando TRACON
10:38AM 28.3667 -81.2833 156° South 217 250 2,200 2,400 Climbing Orlando TRACON
10:39AM 28.3333 -81.2333 127° Southeast 232 267 5,100 2,640 Climbing Orlando TRACON
10:40AM 28.3667 -81.1667 60° Northeast 291 335 7,800 2,700 Climbing Orlando TRACON
10:41AM 28.4500 -81.1833 350° North 293 337 10,800 2,640 Climbing Orlando TRACON
10:42AM 28.6044 -81.2325 344° North 349 402 15,000 2,340 Climbing Jacksonville Center
10:43AM 28.6906 -81.2594 345° North 358 412 17,100 2,220 Climbing Jacksonville Center
10:44AM 28.7931 -81.2933 344° North 364 419 19,500 2,160 Climbing Jacksonville Center
10:45AM 28.9022 -81.3250 346° North 383 441 21,500 2,040 Climbing Jacksonville Center
10:46AM 29.0131 -81.3636 343° North 395 455 23,600 1,980 Climbing Jacksonville Center
10:47AM 29.1264 -81.3975 345° North 407 468 25,500 1,800 Climbing Jacksonville Center
10:48AM 29.2494 -81.4075 356° North 421 484 27,200 1,560 Climbing Jacksonville Center
10:49AM 29.3728 -81.4150 357° North 438 504 28,700 1,740 Climbing Jacksonville Center
10:50AM 29.5067 -81.4297 355° North 443 510 30,700 2,100 Climbing Jacksonville Center
10:51AM 29.6278 -81.4422 355° North 443 510 33,000 1,320 Climbing Jacksonville Center
10:52AM 29.7531 -81.4547 355° North 437 503 33,400 900 Climbing Jacksonville Center
10:53AM 29.8783 -81.4531 North 442 509 34,800 780 Climbing Jacksonville Center
10:54AM 30.0014 -81.4392 North 442 509 35,000 60 Climbing Jacksonville Center
10:55AM 30.1264 -81.4228 North 442 509 35,000 660 Level Jacksonville Center
10:56AM 30.2494 -81.4089 North 442 509 36,400 960 Climbing Jacksonville Center
10:57AM 30.3725 -81.3950 North 442 509 37,000 300 Climbing Jacksonville Center
10:58AM 30.4956 -81.3833 North 442 509 37,000  Level Jacksonville Center
10:59AM 30.6186 -81.3719 North 442 509 37,000  Level Jacksonville Center
11:00AM 30.7417 -81.3553 North 442 509 37,000  Level Jacksonville Center
11:01AM 30.8558 -81.3100 19° North 436 502 37,000  Level Jacksonville Center
11:02AM 30.9658 -81.2428 28° Northeast 436 502 37,000  Level Jacksonville Center
11:03AM 31.0733 -81.1778 27° Northeast 436 502 37,000  Level Jacksonville Center
11:04AM 31.1833 -81.1125 27° Northeast 430 495 37,000  Level Jacksonville Center
11:05AM 31.2886 -81.0472 28° Northeast 424 488 37,000  Level Jacksonville Center
11:06AM 31.3858 -80.9847 29° Northeast 429 494 37,000  Level Jacksonville Center
11:07AM 31.5017 -80.9142 27° Northeast 429 494 37,000  Level Jacksonville Center
11:08AM 31.6011 -80.8508 28° Northeast 429 494 37,000  Level Jacksonville Center
11:09AM 31.7189 -80.7800 27° Northeast 429 494 37,000  Level Jacksonville Center
11:10AM 31.8283 -80.7114 28° Northeast 434 499 37,000  Level Jacksonville Center
11:11AM 31.9275 -80.6528 27° Northeast 434 499 37,000  Level Jacksonville Center
11:12AM 32.0472 -80.5764 28° Northeast 434 499 37,000  Level Jacksonville Center
11:13AM 32.1564 -80.5025 30° Northeast 441 507 37,000  Level Jacksonville Center
11:14AM 32.2658 -80.4381 26° Northeast 441 507 37,000  Level Jacksonville Center
11:15AM 32.3753 -80.3689 28° Northeast 441 507 37,000  Level Jacksonville Center
11:16AM 32.4822 -80.2994 29° Northeast 436 502 37,000  Level Jacksonville Center
11:17AM 32.5917 -80.2297 28° Northeast 436 502 37,000  Level Jacksonville Center
11:18AM 32.6986 -80.1622 28° Northeast 436 502 37,000  Level Jacksonville Center
11:19AM 32.8056 -80.0925 29° Northeast 436 502 37,000  Level Jacksonville Center
11:20AM 32.9044 -80.0250 30° Northeast 431 496 37,000  Level Jacksonville Center
11:21AM 33.0131 -79.9472 31° Northeast 438 504 37,000  Level Jacksonville Center
11:22AM 33.1178 -79.8719 31° Northeast 438 504 37,000  Level Jacksonville Center
11:23AM 33.2247 -79.7986 30° Northeast 438 504 37,000  Level Jacksonville Center
11:24AM 33.3269 -79.7231 32° Northeast 438 504 37,000  Level Jacksonville Center
11:25AM 33.4314 -79.6447 32° Northeast 438 504 37,000  Level Jacksonville Center
11:26AM 33.5381 -79.5686 31° Northeast 438 504 37,000  Level Jacksonville Center
11:27AM 33.6444 -79.4897 32° Northeast 438 504 37,000  Level Jacksonville Center
11:28AM 33.7528 -79.4081 32° Northeast 432 497 37,000  Level Jacksonville Center
11:29AM 33.8592 -79.3314 31° Northeast 432 497 37,000  Level Jacksonville Center
11:30AM 33.9633 -79.2519 32° Northeast 437 503 37,000  Level Jacksonville Center
11:33AM 34.2111 -79.0675 32° Northeast 459 528 37,000  Level Washington Center
11:34AM 34.3261 -78.9817 32° Northeast 452 520 37,000  Level Washington Center
11:35AM 34.4306 -78.9056 31° Northeast 446 513 37,000  Level Washington Center
11:36AM 34.5350 -78.8242 33° Northeast 446 513 37,000  Level Washington Center
11:37AM 34.6394 -78.7397 34° Northeast 446 513 37,000  Level Washington Center
11:38AM 34.7353 -78.6678 32° Northeast 446 513 37,000  Level Washington Center
11:39AM 34.8558 -78.6039 24° Northeast 433 498 37,000  Level Washington Center
11:40AM 34.9719 -78.5500 21° North 427 491 37,000  Level Washington Center
11:41AM 35.0839 -78.4956 22° Northeast 427 491 37,000  Level Washington Center
11:42AM 35.2000 -78.4414 21° North 432 497 37,000  Level Washington Center
11:43AM 35.3139 -78.3869 21° North 437 503 37,000  Level Washington Center
11:44AM 35.4300 -78.3272 23° Northeast 437 503 37,000  Level Washington Center
11:45AM 35.5481 -78.2750 20° North 437 503 37,000  Level Washington Center
11:46AM 35.6642 -78.2203 21° North 442 509 37,000  Level Washington Center
11:47AM 35.7800 -78.1678 20° North 437 503 37,000  Level Washington Center
11:48AM 35.8833 -78.1197 21° North 442 509 37,000 -1,020 Level Washington Center
11:49AM 35.9969 -78.0617 22° Northeast 437 503 35,000 -2,040 Descending Washington Center
11:50AM 36.1067 -78.0111 20° North 432 497 33,000 -1,980 Descending Washington Center
11:51AM 36.2142 -77.9578 22° Northeast 419 482 31,100 -1,980 Descending Washington Center
11:52AM 36.3194 -77.9069 21° North 407 468 29,200 -1,080 Descending Washington Center
11:53AM 36.4353 -77.8536 20° North 407 468 29,000 -120 Descending Washington Center
11:54AM 36.5300 -77.8047 23° Northeast 401 461 29,000 -180 Level Washington Center
11:55AM 36.6394 -77.7508 22° Northeast 401 461 28,700 -540 Descending Washington Center
11:56AM 36.7489 -77.6967 22° Northeast 411 473 28,000 -900 Descending Washington Center
11:57AM 36.8542 -77.6478 20° North 416 479 27,000 -1,020 Descending Washington Center
11:58AM 36.9611 -77.6117 15° North 405 466 26,000 -1,080 Descending Washington Center
11:59AM 37.0639 -77.5778 15° North 388 447 24,900 -1,080 Descending Washington Center
12:00PM 37.1644 -77.5464 14° North 378 435 23,900 -960 Descending Washington Center
12:01PM 37.2672 -77.5100 16° North 378 435 23,000 -480 Descending Washington Center
12:02PM 37.3722 -77.4786 13° North 378 435 23,000  Level Washington Center
12:03PM 37.4747 -77.4444 15° North 378 435 23,000  Level Washington Center
12:04PM 37.5775 -77.4078 16° North 378 435 23,000  Level Washington Center
12:05PM 37.6825 -77.3736 14° North 378 435 23,000  Level Washington Center
12:06PM 37.7872 -77.3392 15° North 378 435 23,000  Level Washington Center
12:07PM 37.8919 -77.3022 16° North 378 435 23,000 -660 Level Washington Center
12:08PM 37.9906 -77.2700 14° North 371 427 21,800 -1,560 Descending Washington Center
12:09PM 38.0953 -77.2381 13° North 354 407 19,900 -1,380 Descending Washington Center
12:10PM 38.1606 -77.1867 32° Northeast 348 400 19,100 -960 Descending Washington Center
12:11PM 38.2494 -77.0936 39° Northeast 348 400 18,100 -1,560 Descending Washington Center
12:12PM 38.3358 -77.0025 40° Northeast 353 406 16,100 -1,980 Descending Washington Center
12:13PM 38.4161 -76.9219 38° Northeast 358 412 14,200 -1,920 Descending Washington Center
12:14PM 38.4919 -76.8411 40° Northeast 358 412 12,300 -1,860 Descending Washington Center
12:15PM 38.5658 -76.7681 38° Northeast 352 405 10,500 -1,320 Descending Washington Center
12:16PM 38.6331 -76.6972 39° Northeast 336 387 9,800 -1,080 Descending Washington Center
12:17PM 38.6961 -76.6317 39° Northeast 306 352 8,400 -1,500 Descending Washington Center
12:18PM 38.7667 -76.5500 42° Northeast 286 329 6,600 -1,380 Descending Potomac TRACON
12:19PM 38.8500 -76.5333 North 282 325 5,500 -1,140 Descending Potomac TRACON
12:20PM 38.9167 -76.5667 339° North 280 322 4,500 -840 Descending Potomac TRACON
12:21PM 38.9833 -76.6000 339° North 276 318 4,000 -300 Descending Potomac TRACON
12:22PM 39.0167 -76.6833 297° West 267 307 4,000  Level Potomac TRACON
12:23PM 39.0500 -76.7667 297° West 272 313 4,000  Level Potomac TRACON
12:24PM 39.1000 -76.8333 314° West 262 302 4,000  Level Potomac TRACON
12:25PM 39.1500 -76.8833 322° Northwest 234 269 4,000  Level Potomac TRACON
12:26PM 39.2167 -76.9000 349° North 233 268 4,100  Climbing Potomac TRACON
12:27PM 39.2667 -76.8833 14° North 197 227 4,000 -480 Descending Potomac TRACON
12:28PM 39.3167 -76.8500 27° Northeast 191 220 3,200 -660 Descending Potomac TRACON
12:29PM 39.3000 -76.8000 113° Southeast 166 191 2,700 -420 Descending Potomac TRACON
12:30PM 39.2667 -76.7667 142° Southeast 163 188 2,400 -660 Descending Potomac TRACON
12:31PM 39.2333 -76.7333 142° Southeast 153 176 1,400 -900 Descending Potomac TRACON
12:32PM 39.2000 -76.7000 142° Southeast 144 166 600 -840 Descending Potomac TRACON